sensor_id;sensor_type;location;lat;lon;timestamp;temperature;humidity
32097;DHT22;18610;49.916;8.284;2024-01-10T00:00:39;-1.70;70.80
32097;DHT22;18610;49.916;8.284;2024-01-10T00:03:06;-1.70;71.00
32097;DHT22;18610;49.916;8.284;2024-01-10T00:05:32;-1.70;71.20
32097;DHT22;18610;49.916;8.284;2024-01-10T00:07:59;-1.70;71.40
32097;DHT22;18610;49.916;8.284;2024-01-10T00:10:27;-1.70;71.60
32097;DHT22;18610;49.916;8.284;2024-01-10T00:12:54;-1.70;71.50
32097;DHT22;18610;49.916;8.284;2024-01-10T00:15:20;-1.80;71.90
32097;DHT22;18610;49.916;8.284;2024-01-10T00:17:47;-1.70;72.00
32097;DHT22;18610;49.916;8.284;2024-01-10T00:20:14;-1.70;71.90
32097;DHT22;18610;49.916;8.284;2024-01-10T00:22:41;-1.70;71.70
32097;DHT22;18610;49.916;8.284;2024-01-10T00:25:08;-1.70;71.80
32097;DHT22;18610;49.916;8.284;2024-01-10T00:27:36;-1.70;72.30
32097;DHT22;18610;49.916;8.284;2024-01-10T00:30:03;-1.70;72.50
32097;DHT22;18610;49.916;8.284;2024-01-10T00:32:30;-1.70;72.60
32097;DHT22;18610;49.916;8.284;2024-01-10T00:34:57;-1.70;72.70
32097;DHT22;18610;49.916;8.284;2024-01-10T00:37:24;-1.70;72.80
32097;DHT22;18610;49.916;8.284;2024-01-10T00:39:50;-1.70;73.10
32097;DHT22;18610;49.916;8.284;2024-01-10T00:42:17;-1.70;73.00
32097;DHT22;18610;49.916;8.284;2024-01-10T00:44:45;-1.70;72.80
32097;DHT22;18610;49.916;8.284;2024-01-10T00:47:12;-1.70;72.70
32097;DHT22;18610;49.916;8.284;2024-01-10T00:49:38;-1.70;72.90
32097;DHT22;18610;49.916;8.284;2024-01-10T00:52:05;-1.60;72.70
32097;DHT22;18610;49.916;8.284;2024-01-10T00:54:32;-1.60;72.20
32097;DHT22;18610;49.916;8.284;2024-01-10T00:56:58;-1.50;72.10
32097;DHT22;18610;49.916;8.284;2024-01-10T00:59:25;-1.50;72.30
32097;DHT22;18610;49.916;8.284;2024-01-10T01:01:53;-1.50;72.50
32097;DHT22;18610;49.916;8.284;2024-01-10T01:04:20;-1.50;72.50
32097;DHT22;18610;49.916;8.284;2024-01-10T01:06:46;-1.50;73.60
32097;DHT22;18610;49.916;8.284;2024-01-10T01:09:13;-1.50;73.00
32097;DHT22;18610;49.916;8.284;2024-01-10T01:11:40;-1.50;73.10
32097;DHT22;18610;49.916;8.284;2024-01-10T01:14:07;-1.50;72.90
32097;DHT22;18610;49.916;8.284;2024-01-10T01:16:34;-1.50;72.80
32097;DHT22;18610;49.916;8.284;2024-01-10T01:19:02;-1.50;72.90
32097;DHT22;18610;49.916;8.284;2024-01-10T01:21:28;-1.50;73.10
32097;DHT22;18610;49.916;8.284;2024-01-10T01:23:57;-1.50;73.30
32097;DHT22;18610;49.916;8.284;2024-01-10T01:26:23;-1.50;73.60
32097;DHT22;18610;49.916;8.284;2024-01-10T01:28:50;-1.60;74.00
32097;DHT22;18610;49.916;8.284;2024-01-10T01:31:17;-1.60;74.40
32097;DHT22;18610;49.916;8.284;2024-01-10T01:33:43;-1.60;74.50
32097;DHT22;18610;49.916;8.284;2024-01-10T01:36:11;-1.60;74.70
32097;DHT22;18610;49.916;8.284;2024-01-10T01:38:38;-1.60;75.00
32097;DHT22;18610;49.916;8.284;2024-01-10T01:41:05;-1.70;74.80
32097;DHT22;18610;49.916;8.284;2024-01-10T01:43:32;-1.60;74.70
32097;DHT22;18610;49.916;8.284;2024-01-10T01:45:59;-1.60;74.30
32097;DHT22;18610;49.916;8.284;2024-01-10T01:48:26;-1.60;74.60
32097;DHT22;18610;49.916;8.284;2024-01-10T01:50:57;-1.60;74.80
32097;DHT22;18610;49.916;8.284;2024-01-10T01:53:27;-1.60;75.20
32097;DHT22;18610;49.916;8.284;2024-01-10T01:55:55;-1.60;75.30
32097;DHT22;18610;49.916;8.284;2024-01-10T01:58:22;-1.60;75.60
32097;DHT22;18610;49.916;8.284;2024-01-10T02:00:50;-1.70;76.10
32097;DHT22;18610;49.916;8.284;2024-01-10T02:03:17;-1.70;76.30
32097;DHT22;18610;49.916;8.284;2024-01-10T02:05:46;-1.70;76.60
32097;DHT22;18610;49.916;8.284;2024-01-10T02:08:13;-1.70;76.80
32097;DHT22;18610;49.916;8.284;2024-01-10T02:10:41;-1.70;77.10
32097;DHT22;18610;49.916;8.284;2024-01-10T02:13:10;-1.70;77.20
32097;DHT22;18610;49.916;8.284;2024-01-10T02:15:38;-1.80;77.60
32097;DHT22;18610;49.916;8.284;2024-01-10T02:18:05;-1.80;77.70
32097;DHT22;18610;49.916;8.284;2024-01-10T02:20:32;-1.80;78.40
32097;DHT22;18610;49.916;8.284;2024-01-10T02:22:58;-1.90;78.70
32097;DHT22;18610;49.916;8.284;2024-01-10T02:25:26;-1.90;79.30
32097;DHT22;18610;49.916;8.284;2024-01-10T02:27:53;-2.00;79.60
32097;DHT22;18610;49.916;8.284;2024-01-10T02:30:19;-2.00;79.80
32097;DHT22;18610;49.916;8.284;2024-01-10T02:32:46;-2.00;79.80
32097;DHT22;18610;49.916;8.284;2024-01-10T02:35:13;-2.10;79.90
32097;DHT22;18610;49.916;8.284;2024-01-10T02:37:39;-2.10;80.20
32097;DHT22;18610;49.916;8.284;2024-01-10T02:40:07;-2.10;80.30
32097;DHT22;18610;49.916;8.284;2024-01-10T02:42:35;-2.10;80.50
32097;DHT22;18610;49.916;8.284;2024-01-10T02:45:02;-2.10;80.80
32097;DHT22;18610;49.916;8.284;2024-01-10T02:47:29;-2.20;81.00
32097;DHT22;18610;49.916;8.284;2024-01-10T02:49:56;-2.20;81.30
32097;DHT22;18610;49.916;8.284;2024-01-10T02:52:22;-2.20;81.70
32097;DHT22;18610;49.916;8.284;2024-01-10T02:54:49;-2.20;81.60
32097;DHT22;18610;49.916;8.284;2024-01-10T02:57:16;-2.20;81.90
32097;DHT22;18610;49.916;8.284;2024-01-10T02:59:44;-2.30;82.50
32097;DHT22;18610;49.916;8.284;2024-01-10T03:02:10;-2.40;82.80
32097;DHT22;18610;49.916;8.284;2024-01-10T03:04:37;-2.30;83.20
32097;DHT22;18610;49.916;8.284;2024-01-10T03:07:04;-2.40;83.50
32097;DHT22;18610;49.916;8.284;2024-01-10T03:09:31;-2.40;83.80
32097;DHT22;18610;49.916;8.284;2024-01-10T03:11:57;-2.40;83.90
32097;DHT22;18610;49.916;8.284;2024-01-10T03:14:24;-2.40;84.40
32097;DHT22;18610;49.916;8.284;2024-01-10T03:16:52;-2.40;84.60
32097;DHT22;18610;49.916;8.284;2024-01-10T03:19:19;-2.40;84.70
32097;DHT22;18610;49.916;8.284;2024-01-10T03:21:46;-2.40;85.00
32097;DHT22;18610;49.916;8.284;2024-01-10T03:24:12;-2.40;85.30
32097;DHT22;18610;49.916;8.284;2024-01-10T03:26:39;-2.40;85.50
32097;DHT22;18610;49.916;8.284;2024-01-10T03:29:06;-2.40;86.30
32097;DHT22;18610;49.916;8.284;2024-01-10T03:31:32;-2.40;85.80
32097;DHT22;18610;49.916;8.284;2024-01-10T03:34:00;-2.40;86.10
32097;DHT22;18610;49.916;8.284;2024-01-10T03:36:27;-2.40;86.30
32097;DHT22;18610;49.916;8.284;2024-01-10T03:38:54;-2.40;86.30
32097;DHT22;18610;49.916;8.284;2024-01-10T03:41:20;-2.40;86.50
32097;DHT22;18610;49.916;8.284;2024-01-10T03:43:47;-2.50;86.70
32097;DHT22;18610;49.916;8.284;2024-01-10T03:46:15;-2.50;87.30
32097;DHT22;18610;49.916;8.284;2024-01-10T03:48:41;-2.50;87.90
32097;DHT22;18610;49.916;8.284;2024-01-10T03:51:14;-2.50;88.40
32097;DHT22;18610;49.916;8.284;2024-01-10T03:53:41;-2.60;88.70
32097;DHT22;18610;49.916;8.284;2024-01-10T03:56:08;-2.60;88.90
32097;DHT22;18610;49.916;8.284;2024-01-10T03:58:35;-2.60;88.80
32097;DHT22;18610;49.916;8.284;2024-01-10T04:01:04;-2.60;88.90
32097;DHT22;18610;49.916;8.284;2024-01-10T04:03:32;-2.60;89.30
32097;DHT22;18610;49.916;8.284;2024-01-10T04:05:59;-2.60;89.60
32097;DHT22;18610;49.916;8.284;2024-01-10T04:08:27;-2.60;89.80
32097;DHT22;18610;49.916;8.284;2024-01-10T04:10:54;-2.60;90.00
32097;DHT22;18610;49.916;8.284;2024-01-10T04:13:20;-2.50;90.10
32097;DHT22;18610;49.916;8.284;2024-01-10T04:15:47;-2.60;90.20
32097;DHT22;18610;49.916;8.284;2024-01-10T04:18:14;-2.50;90.10
32097;DHT22;18610;49.916;8.284;2024-01-10T04:20:40;-2.50;90.20
32097;DHT22;18610;49.916;8.284;2024-01-10T04:23:07;-2.50;90.30
32097;DHT22;18610;49.916;8.284;2024-01-10T04:25:35;-2.50;90.50
32097;DHT22;18610;49.916;8.284;2024-01-10T04:28:02;-2.50;90.40
32097;DHT22;18610;49.916;8.284;2024-01-10T04:30:29;-2.50;90.50
32097;DHT22;18610;49.916;8.284;2024-01-10T04:32:55;-2.50;90.80
32097;DHT22;18610;49.916;8.284;2024-01-10T04:35:22;-2.50;90.90
32097;DHT22;18610;49.916;8.284;2024-01-10T04:37:48;-2.50;90.90
32097;DHT22;18610;49.916;8.284;2024-01-10T04:40:15;-2.40;90.90
32097;DHT22;18610;49.916;8.284;2024-01-10T04:42:44;-2.40;90.90
32097;DHT22;18610;49.916;8.284;2024-01-10T04:45:11;-2.40;90.90
32097;DHT22;18610;49.916;8.284;2024-01-10T04:47:38;-2.50;90.80
32097;DHT22;18610;49.916;8.284;2024-01-10T04:50:06;-2.40;90.80
32097;DHT22;18610;49.916;8.284;2024-01-10T04:52:33;-2.40;90.80
32097;DHT22;18610;49.916;8.284;2024-01-10T04:54:59;-2.40;90.80
32097;DHT22;18610;49.916;8.284;2024-01-10T04:57:27;-2.40;90.90
32097;DHT22;18610;49.916;8.284;2024-01-10T04:59:56;-2.40;90.80
32097;DHT22;18610;49.916;8.284;2024-01-10T05:02:23;-2.30;90.90
32097;DHT22;18610;49.916;8.284;2024-01-10T05:04:49;-2.40;90.90
32097;DHT22;18610;49.916;8.284;2024-01-10T05:07:16;-2.30;91.00
32097;DHT22;18610;49.916;8.284;2024-01-10T05:09:43;-2.30;91.00
32097;DHT22;18610;49.916;8.284;2024-01-10T05:12:09;-2.30;90.90
32097;DHT22;18610;49.916;8.284;2024-01-10T05:14:36;-2.20;91.10
32097;DHT22;18610;49.916;8.284;2024-01-10T05:17:04;-2.30;91.10
32097;DHT22;18610;49.916;8.284;2024-01-10T05:19:31;-2.30;91.10
32097;DHT22;18610;49.916;8.284;2024-01-10T05:21:57;-2.20;91.20
32097;DHT22;18610;49.916;8.284;2024-01-10T05:24:25;-2.20;91.30
32097;DHT22;18610;49.916;8.284;2024-01-10T05:26:51;-2.20;91.30
32097;DHT22;18610;49.916;8.284;2024-01-10T05:29:18;-2.10;91.30
32097;DHT22;18610;49.916;8.284;2024-01-10T05:31:45;-2.10;91.10
32097;DHT22;18610;49.916;8.284;2024-01-10T05:34:13;-2.10;91.00
32097;DHT22;18610;49.916;8.284;2024-01-10T05:36:40;-2.10;91.00
32097;DHT22;18610;49.916;8.284;2024-01-10T05:39:07;-2.20;91.00
32097;DHT22;18610;49.916;8.284;2024-01-10T05:41:34;-2.20;91.10
32097;DHT22;18610;49.916;8.284;2024-01-10T05:44:01;-2.20;91.20
32097;DHT22;18610;49.916;8.284;2024-01-10T05:46:30;-2.20;91.40
32097;DHT22;18610;49.916;8.284;2024-01-10T05:48:56;-2.20;91.40
32097;DHT22;18610;49.916;8.284;2024-01-10T05:51:24;-2.20;91.40
32097;DHT22;18610;49.916;8.284;2024-01-10T05:53:51;-2.20;91.40
32097;DHT22;18610;49.916;8.284;2024-01-10T05:56:18;-2.20;91.50
32097;DHT22;18610;49.916;8.284;2024-01-10T05:58:44;-2.20;91.50
32097;DHT22;18610;49.916;8.284;2024-01-10T06:01:11;-2.20;91.40
32097;DHT22;18610;49.916;8.284;2024-01-10T06:03:37;-2.30;91.40
32097;DHT22;18610;49.916;8.284;2024-01-10T06:06:04;-2.20;91.50
32097;DHT22;18610;49.916;8.284;2024-01-10T06:08:32;-2.30;91.60
32097;DHT22;18610;49.916;8.284;2024-01-10T06:10:59;-2.30;91.60
32097;DHT22;18610;49.916;8.284;2024-01-10T06:13:28;-2.30;91.70
32097;DHT22;18610;49.916;8.284;2024-01-10T06:15:55;-2.40;91.90
32097;DHT22;18610;49.916;8.284;2024-01-10T06:18:21;-2.40;92.10
32097;DHT22;18610;49.916;8.284;2024-01-10T06:20:48;-2.40;92.30
32097;DHT22;18610;49.916;8.284;2024-01-10T06:23:15;-2.50;92.40
32097;DHT22;18610;49.916;8.284;2024-01-10T06:25:43;-2.50;92.40
32097;DHT22;18610;49.916;8.284;2024-01-10T06:28:09;-2.50;92.40
32097;DHT22;18610;49.916;8.284;2024-01-10T06:30:36;-2.50;92.50
32097;DHT22;18610;49.916;8.284;2024-01-10T06:33:03;-2.50;92.50
32097;DHT22;18610;49.916;8.284;2024-01-10T06:35:32;-2.60;92.70
32097;DHT22;18610;49.916;8.284;2024-01-10T06:37:59;-2.60;92.70
32097;DHT22;18610;49.916;8.284;2024-01-10T06:40:29;-2.60;92.80
32097;DHT22;18610;49.916;8.284;2024-01-10T06:42:58;-2.60;93.00
32097;DHT22;18610;49.916;8.284;2024-01-10T06:45:26;-2.70;93.10
32097;DHT22;18610;49.916;8.284;2024-01-10T06:47:53;-2.70;93.20
32097;DHT22;18610;49.916;8.284;2024-01-10T06:50:20;-2.70;93.40
32097;DHT22;18610;49.916;8.284;2024-01-10T06:52:48;-2.70;93.60
32097;DHT22;18610;49.916;8.284;2024-01-10T06:55:15;-2.70;93.60
32097;DHT22;18610;49.916;8.284;2024-01-10T06:57:42;-2.70;93.60
32097;DHT22;18610;49.916;8.284;2024-01-10T07:00:11;-2.80;93.50
32097;DHT22;18610;49.916;8.284;2024-01-10T07:02:37;-2.80;93.60
32097;DHT22;18610;49.916;8.284;2024-01-10T07:05:07;-2.80;93.80
32097;DHT22;18610;49.916;8.284;2024-01-10T07:07:34;-2.80;93.90
32097;DHT22;18610;49.916;8.284;2024-01-10T07:10:01;-2.80;94.00
32097;DHT22;18610;49.916;8.284;2024-01-10T07:12:30;-2.80;94.00
32097;DHT22;18610;49.916;8.284;2024-01-10T07:14:56;-2.80;94.20
32097;DHT22;18610;49.916;8.284;2024-01-10T07:17:25;-2.80;94.30
32097;DHT22;18610;49.916;8.284;2024-01-10T07:19:51;-2.80;94.40
32097;DHT22;18610;49.916;8.284;2024-01-10T07:22:18;-2.80;94.40
32097;DHT22;18610;49.916;8.284;2024-01-10T07:24:45;-2.80;94.50
32097;DHT22;18610;49.916;8.284;2024-01-10T07:27:12;-2.80;94.70
32097;DHT22;18610;49.916;8.284;2024-01-10T07:29:40;-2.90;95.00
32097;DHT22;18610;49.916;8.284;2024-01-10T07:32:07;-2.90;95.20
32097;DHT22;18610;49.916;8.284;2024-01-10T07:34:37;-2.90;95.60
32097;DHT22;18610;49.916;8.284;2024-01-10T07:37:04;-2.90;95.80
32097;DHT22;18610;49.916;8.284;2024-01-10T07:39:31;-2.90;95.90
32097;DHT22;18610;49.916;8.284;2024-01-10T07:41:58;-2.90;95.90
32097;DHT22;18610;49.916;8.284;2024-01-10T07:44:27;-2.90;95.80
32097;DHT22;18610;49.916;8.284;2024-01-10T07:46:54;-2.80;95.70
32097;DHT22;18610;49.916;8.284;2024-01-10T07:49:21;-2.80;95.50
32097;DHT22;18610;49.916;8.284;2024-01-10T07:51:50;-2.70;95.40
32097;DHT22;18610;49.916;8.284;2024-01-10T07:54:17;-2.70;95.30
32097;DHT22;18610;49.916;8.284;2024-01-10T07:56:44;-2.60;95.30
32097;DHT22;18610;49.916;8.284;2024-01-10T07:59:10;-2.60;95.30
32097;DHT22;18610;49.916;8.284;2024-01-10T08:01:40;-2.60;95.40
32097;DHT22;18610;49.916;8.284;2024-01-10T08:04:06;-2.50;95.30
32097;DHT22;18610;49.916;8.284;2024-01-10T08:06:33;-2.50;95.30
32097;DHT22;18610;49.916;8.284;2024-01-10T08:09:01;-2.40;95.40
32097;DHT22;18610;49.916;8.284;2024-01-10T08:11:29;-2.40;95.20
32097;DHT22;18610;49.916;8.284;2024-01-10T08:13:56;-2.40;95.10
32097;DHT22;18610;49.916;8.284;2024-01-10T08:16:23;-2.30;95.20
32097;DHT22;18610;49.916;8.284;2024-01-10T08:18:50;-2.30;95.00
32097;DHT22;18610;49.916;8.284;2024-01-10T08:21:16;-2.20;94.70
32097;DHT22;18610;49.916;8.284;2024-01-10T08:23:44;-2.20;94.50
32097;DHT22;18610;49.916;8.284;2024-01-10T08:26:12;-2.10;94.40
32097;DHT22;18610;49.916;8.284;2024-01-10T08:28:39;-2.10;94.50
32097;DHT22;18610;49.916;8.284;2024-01-10T08:31:07;-2.10;94.40
32097;DHT22;18610;49.916;8.284;2024-01-10T08:33:33;-2.00;94.20
32097;DHT22;18610;49.916;8.284;2024-01-10T08:36:00;-1.90;93.90
32097;DHT22;18610;49.916;8.284;2024-01-10T08:38:27;-1.80;93.40
32097;DHT22;18610;49.916;8.284;2024-01-10T08:40:54;-1.80;93.20
32097;DHT22;18610;49.916;8.284;2024-01-10T08:43:22;-1.70;93.30
32097;DHT22;18610;49.916;8.284;2024-01-10T08:45:48;-1.70;93.50
32097;DHT22;18610;49.916;8.284;2024-01-10T08:48:16;-1.60;93.10
32097;DHT22;18610;49.916;8.284;2024-01-10T08:50:42;-1.50;92.90
32097;DHT22;18610;49.916;8.284;2024-01-10T08:53:10;-1.40;92.70
32097;DHT22;18610;49.916;8.284;2024-01-10T08:55:36;-1.40;92.70
32097;DHT22;18610;49.916;8.284;2024-01-10T08:58:03;-1.30;92.80
32097;DHT22;18610;49.916;8.284;2024-01-10T09:00:31;-1.20;92.30
32097;DHT22;18610;49.916;8.284;2024-01-10T09:02:58;-1.10;92.10
32097;DHT22;18610;49.916;8.284;2024-01-10T09:05:25;-1.00;92.00
32097;DHT22;18610;49.916;8.284;2024-01-10T09:07:51;-1.00;91.70
32097;DHT22;18610;49.916;8.284;2024-01-10T09:10:19;-0.90;91.40
32097;DHT22;18610;49.916;8.284;2024-01-10T09:12:49;-0.90;91.30
32097;DHT22;18610;49.916;8.284;2024-01-10T09:15:16;-0.80;91.00
32097;DHT22;18610;49.916;8.284;2024-01-10T09:17:44;-0.80;90.70
32097;DHT22;18610;49.916;8.284;2024-01-10T09:20:12;-0.70;90.80
32097;DHT22;18610;49.916;8.284;2024-01-10T09:22:39;-0.60;90.70
32097;DHT22;18610;49.916;8.284;2024-01-10T09:25:06;-0.60;90.60
32097;DHT22;18610;49.916;8.284;2024-01-10T09:27:34;-0.60;90.70
32097;DHT22;18610;49.916;8.284;2024-01-10T09:30:01;-0.60;90.70
32097;DHT22;18610;49.916;8.284;2024-01-10T09:32:28;-0.50;90.80
32097;DHT22;18610;49.916;8.284;2024-01-10T09:34:56;-0.50;90.70
32097;DHT22;18610;49.916;8.284;2024-01-10T09:37:23;-0.40;90.20
32097;DHT22;18610;49.916;8.284;2024-01-10T09:39:50;-0.40;90.10
32097;DHT22;18610;49.916;8.284;2024-01-10T09:42:17;-0.30;89.50
32097;DHT22;18610;49.916;8.284;2024-01-10T09:44:45;-0.30;89.30
32097;DHT22;18610;49.916;8.284;2024-01-10T09:47:13;-0.20;89.90
32097;DHT22;18610;49.916;8.284;2024-01-10T09:49:41;-0.10;89.70
32097;DHT22;18610;49.916;8.284;2024-01-10T09:52:16;-0.10;89.50
32097;DHT22;18610;49.916;8.284;2024-01-10T09:54:43;-0.10;89.80
32097;DHT22;18610;49.916;8.284;2024-01-10T09:57:12;0.00;89.10
32097;DHT22;18610;49.916;8.284;2024-01-10T09:59:41;0.00;88.70
32097;DHT22;18610;49.916;8.284;2024-01-10T10:02:09;0.00;88.40
32097;DHT22;18610;49.916;8.284;2024-01-10T10:04:37;0.10;88.40
32097;DHT22;18610;49.916;8.284;2024-01-10T10:07:06;0.10;88.40
32097;DHT22;18610;49.916;8.284;2024-01-10T10:09:34;0.10;88.10
32097;DHT22;18610;49.916;8.284;2024-01-10T10:12:01;0.20;87.50
32097;DHT22;18610;49.916;8.284;2024-01-10T10:14:28;0.20;86.70
32097;DHT22;18610;49.916;8.284;2024-01-10T10:16:55;0.20;86.80
32097;DHT22;18610;49.916;8.284;2024-01-10T10:19:23;0.30;87.10
32097;DHT22;18610;49.916;8.284;2024-01-10T10:21:49;0.20;87.00
32097;DHT22;18610;49.916;8.284;2024-01-10T10:24:17;0.20;87.30
32097;DHT22;18610;49.916;8.284;2024-01-10T10:26:45;0.20;87.10
32097;DHT22;18610;49.916;8.284;2024-01-10T10:29:11;0.30;87.40
32097;DHT22;18610;49.916;8.284;2024-01-10T10:31:38;0.30;86.20
32097;DHT22;18610;49.916;8.284;2024-01-10T10:34:05;0.40;85.90
32097;DHT22;18610;49.916;8.284;2024-01-10T10:36:31;0.50;85.30
32097;DHT22;18610;49.916;8.284;2024-01-10T10:38:59;0.50;85.30
32097;DHT22;18610;49.916;8.284;2024-01-10T10:41:27;0.60;85.80
32097;DHT22;18610;49.916;8.284;2024-01-10T10:43:58;0.60;85.40
32097;DHT22;18610;49.916;8.284;2024-01-10T10:46:27;0.70;85.70
32097;DHT22;18610;49.916;8.284;2024-01-10T10:48:54;0.70;84.90
32097;DHT22;18610;49.916;8.284;2024-01-10T10:51:27;0.80;83.20
32097;DHT22;18610;49.916;8.284;2024-01-10T10:53:59;0.90;82.90
32097;DHT22;18610;49.916;8.284;2024-01-10T10:56:29;1.00;83.20
32097;DHT22;18610;49.916;8.284;2024-01-10T10:58:58;1.10;82.60
32097;DHT22;18610;49.916;8.284;2024-01-10T11:01:27;1.30;81.50
32097;DHT22;18610;49.916;8.284;2024-01-10T11:03:55;1.50;80.20
32097;DHT22;18610;49.916;8.284;2024-01-10T11:06:22;1.80;78.90
32097;DHT22;18610;49.916;8.284;2024-01-10T11:08:52;2.00;78.30
32097;DHT22;18610;49.916;8.284;2024-01-10T11:11:30;2.30;77.40
32097;DHT22;18610;49.916;8.284;2024-01-10T11:14:16;2.60;76.00
32097;DHT22;18610;49.916;8.284;2024-01-10T11:17:14;3.10;74.60
32097;DHT22;18610;49.916;8.284;2024-01-10T11:20:21;3.70;72.10
32097;DHT22;18610;49.916;8.284;2024-01-10T11:23:10;4.20;69.60
32097;DHT22;18610;49.916;8.284;2024-01-10T11:25:40;5.10;67.50
32097;DHT22;18610;49.916;8.284;2024-01-10T11:28:08;5.90;63.30
32097;DHT22;18610;49.916;8.284;2024-01-10T11:30:36;6.40;59.70
32097;DHT22;18610;49.916;8.284;2024-01-10T11:33:18;7.20;59.00
32097;DHT22;18610;49.916;8.284;2024-01-10T11:36:06;8.30;57.50
32097;DHT22;18610;49.916;8.284;2024-01-10T11:38:38;9.50;54.30
32097;DHT22;18610;49.916;8.284;2024-01-10T11:41:05;10.90;50.40
32097;DHT22;18610;49.916;8.284;2024-01-10T11:43:33;12.10;47.00
32097;DHT22;18610;49.916;8.284;2024-01-10T11:46:02;13.10;44.60
32097;DHT22;18610;49.916;8.284;2024-01-10T11:48:31;13.90;42.30
32097;DHT22;18610;49.916;8.284;2024-01-10T11:51:02;13.80;40.40
32097;DHT22;18610;49.916;8.284;2024-01-10T11:53:43;13.20;40.30
32097;DHT22;18610;49.916;8.284;2024-01-10T11:56:12;13.20;40.80
32097;DHT22;18610;49.916;8.284;2024-01-10T11:59:01;13.20;41.00
32097;DHT22;18610;49.916;8.284;2024-01-10T12:01:31;13.90;39.80
32097;DHT22;18610;49.916;8.284;2024-01-10T12:03:58;14.60;38.30
32097;DHT22;18610;49.916;8.284;2024-01-10T12:06:25;15.20;37.20
32097;DHT22;18610;49.916;8.284;2024-01-10T12:08:52;15.80;36.80
32097;DHT22;18610;49.916;8.284;2024-01-10T12:11:19;16.30;35.60
32097;DHT22;18610;49.916;8.284;2024-01-10T12:13:46;16.40;34.70
32097;DHT22;18610;49.916;8.284;2024-01-10T12:16:13;16.40;34.30
32097;DHT22;18610;49.916;8.284;2024-01-10T12:18:42;16.30;34.50
32097;DHT22;18610;49.916;8.284;2024-01-10T12:21:08;16.20;34.30
32097;DHT22;18610;49.916;8.284;2024-01-10T12:23:36;16.20;34.50
32097;DHT22;18610;49.916;8.284;2024-01-10T12:26:04;16.10;34.30
32097;DHT22;18610;49.916;8.284;2024-01-10T12:28:32;16.20;33.90
32097;DHT22;18610;49.916;8.284;2024-01-10T12:30:59;16.20;33.70
32097;DHT22;18610;49.916;8.284;2024-01-10T12:33:26;15.90;34.20
32097;DHT22;18610;49.916;8.284;2024-01-10T12:36:06;15.60;34.40
32097;DHT22;18610;49.916;8.284;2024-01-10T12:38:33;15.20;34.60
32097;DHT22;18610;49.916;8.284;2024-01-10T12:41:00;15.10;35.40
32097;DHT22;18610;49.916;8.284;2024-01-10T12:43:28;14.90;35.90
32097;DHT22;18610;49.916;8.284;2024-01-10T12:46:04;14.80;35.80
32097;DHT22;18610;49.916;8.284;2024-01-10T12:48:31;14.60;35.80
32097;DHT22;18610;49.916;8.284;2024-01-10T12:50:58;14.60;35.80
32097;DHT22;18610;49.916;8.284;2024-01-10T12:53:28;14.50;35.30
32097;DHT22;18610;49.916;8.284;2024-01-10T12:55:55;14.30;36.60
32097;DHT22;18610;49.916;8.284;2024-01-10T12:58:21;14.30;36.00
32097;DHT22;18610;49.916;8.284;2024-01-10T13:00:48;14.30;35.70
32097;DHT22;18610;49.916;8.284;2024-01-10T13:03:15;14.20;36.20
32097;DHT22;18610;49.916;8.284;2024-01-10T13:05:43;13.80;36.80
32097;DHT22;18610;49.916;8.284;2024-01-10T13:08:09;13.70;37.20
32097;DHT22;18610;49.916;8.284;2024-01-10T13:10:38;13.60;36.60
32097;DHT22;18610;49.916;8.284;2024-01-10T13:13:05;13.50;36.80
32097;DHT22;18610;49.916;8.284;2024-01-10T13:15:31;13.40;36.80
32097;DHT22;18610;49.916;8.284;2024-01-10T13:17:58;13.30;37.00
32097;DHT22;18610;49.916;8.284;2024-01-10T13:20:25;13.20;36.80
32097;DHT22;18610;49.916;8.284;2024-01-10T13:22:53;13.20;37.00
32097;DHT22;18610;49.916;8.284;2024-01-10T13:25:19;13.10;37.10
32097;DHT22;18610;49.916;8.284;2024-01-10T13:27:49;13.10;37.50
32097;DHT22;18610;49.916;8.284;2024-01-10T13:30:17;13.00;37.70
32097;DHT22;18610;49.916;8.284;2024-01-10T13:32:44;13.00;37.60
32097;DHT22;18610;49.916;8.284;2024-01-10T13:35:12;13.10;37.10
32097;DHT22;18610;49.916;8.284;2024-01-10T13:37:39;13.10;37.30
32097;DHT22;18610;49.916;8.284;2024-01-10T13:40:07;13.10;37.10
32097;DHT22;18610;49.916;8.284;2024-01-10T13:42:35;13.00;37.00
32097;DHT22;18610;49.916;8.284;2024-01-10T13:45:04;12.70;37.60
32097;DHT22;18610;49.916;8.284;2024-01-10T13:47:31;12.60;38.00
32097;DHT22;18610;49.916;8.284;2024-01-10T13:49:58;12.40;38.20
32097;DHT22;18610;49.916;8.284;2024-01-10T13:52:25;12.30;38.50
32097;DHT22;18610;49.916;8.284;2024-01-10T13:54:51;12.30;38.30
32097;DHT22;18610;49.916;8.284;2024-01-10T13:57:18;12.30;38.10
32097;DHT22;18610;49.916;8.284;2024-01-10T13:59:45;12.30;38.40
32097;DHT22;18610;49.916;8.284;2024-01-10T14:02:14;12.30;38.90
32097;DHT22;18610;49.916;8.284;2024-01-10T14:04:41;12.20;38.60
32097;DHT22;18610;49.916;8.284;2024-01-10T14:07:08;11.90;39.60
32097;DHT22;18610;49.916;8.284;2024-01-10T14:09:34;11.80;39.00
32097;DHT22;18610;49.916;8.284;2024-01-10T14:12:04;11.60;39.10
32097;DHT22;18610;49.916;8.284;2024-01-10T14:14:31;11.50;39.70
32097;DHT22;18610;49.916;8.284;2024-01-10T14:16:58;11.50;39.70
32097;DHT22;18610;49.916;8.284;2024-01-10T14:19:26;11.30;40.30
32097;DHT22;18610;49.916;8.284;2024-01-10T14:21:53;11.10;40.30
32097;DHT22;18610;49.916;8.284;2024-01-10T14:24:19;11.00;40.70
32097;DHT22;18610;49.916;8.284;2024-01-10T14:26:46;10.90;41.10
32097;DHT22;18610;49.916;8.284;2024-01-10T14:29:15;10.80;40.90
32097;DHT22;18610;49.916;8.284;2024-01-10T14:31:42;10.70;41.40
32097;DHT22;18610;49.916;8.284;2024-01-10T14:34:09;10.50;41.50
32097;DHT22;18610;49.916;8.284;2024-01-10T14:36:38;10.30;42.10
32097;DHT22;18610;49.916;8.284;2024-01-10T14:39:05;10.20;42.40
32097;DHT22;18610;49.916;8.284;2024-01-10T14:41:33;10.10;42.40
32097;DHT22;18610;49.916;8.284;2024-01-10T14:44:00;10.10;42.40
32097;DHT22;18610;49.916;8.284;2024-01-10T14:46:29;10.00;42.60
32097;DHT22;18610;49.916;8.284;2024-01-10T14:48:55;9.80;43.10
32097;DHT22;18610;49.916;8.284;2024-01-10T14:51:22;9.50;43.60
32097;DHT22;18610;49.916;8.284;2024-01-10T14:53:50;9.20;44.00
32097;DHT22;18610;49.916;8.284;2024-01-10T14:56:17;8.80;44.70
32097;DHT22;18610;49.916;8.284;2024-01-10T14:58:44;8.50;45.30
32097;DHT22;18610;49.916;8.284;2024-01-10T15:01:11;8.20;46.00
32097;DHT22;18610;49.916;8.284;2024-01-10T15:03:38;7.90;46.60
32097;DHT22;18610;49.916;8.284;2024-01-10T15:06:05;7.50;47.30
32097;DHT22;18610;49.916;8.284;2024-01-10T15:08:32;7.10;47.90
32097;DHT22;18610;49.916;8.284;2024-01-10T15:11:01;6.80;48.90
32097;DHT22;18610;49.916;8.284;2024-01-10T15:13:27;6.30;50.00
32097;DHT22;18610;49.916;8.284;2024-01-10T15:15:54;5.90;50.80
32097;DHT22;18610;49.916;8.284;2024-01-10T15:18:21;5.60;51.80
32097;DHT22;18610;49.916;8.284;2024-01-10T15:20:47;5.20;52.80
32097;DHT22;18610;49.916;8.284;2024-01-10T15:23:14;4.80;53.70
32097;DHT22;18610;49.916;8.284;2024-01-10T15:25:41;4.50;54.60
32097;DHT22;18610;49.916;8.284;2024-01-10T15:28:09;4.20;55.70
32097;DHT22;18610;49.916;8.284;2024-01-10T15:30:35;3.90;56.90
32097;DHT22;18610;49.916;8.284;2024-01-10T15:33:02;3.60;57.90
32097;DHT22;18610;49.916;8.284;2024-01-10T15:35:29;3.40;58.90